createdAt,value
2022-12-03T00:00:19.629Z,88.20
2022-12-03T00:02:48.729Z,88.13
2022-12-03T00:05:16.530Z,88.00
2022-12-03T00:07:44.229Z,87.90
2022-12-03T00:10:13.174Z,87.65
2022-12-03T00:12:40.888Z,87.61
2022-12-03T00:15:10.331Z,86.88
2022-12-03T00:17:38.025Z,87.21
2022-12-03T00:20:09.361Z,87.61
2022-12-03T00:22:37.028Z,87.11
2022-12-03T00:25:05.062Z,87.49
2022-12-03T00:27:32.667Z,87.68
2022-12-03T00:30:00.341Z,87.54
2022-12-03T00:32:28.024Z,87.32
2022-12-03T00:34:55.898Z,86.96
2022-12-03T00:37:25.128Z,87.61
2022-12-03T00:39:52.950Z,87.54
2022-12-03T00:42:20.572Z,87.85
2022-12-03T00:44:48.258Z,86.94
2022-12-03T00:47:15.977Z,87.25
2022-12-03T00:49:43.589Z,87.35
2022-12-03T00:52:11.205Z,86.62
2022-12-03T00:54:40.235Z,87.35
2022-12-03T00:57:07.877Z,87.54
2022-12-03T00:59:35.530Z,87.01
2022-12-03T01:02:03.277Z,86.60
2022-12-03T01:04:32.692Z,86.07
2022-12-03T01:07:00.718Z,86.51
2022-12-03T01:09:28.557Z,87.15
2022-12-03T01:11:57.587Z,87.20
2022-12-03T01:14:25.184Z,86.65
2022-12-03T01:16:52.917Z,86.29
2022-12-03T01:19:20.557Z,86.91
2022-12-03T01:21:50.369Z,87.06
2022-12-03T01:24:19.099Z,87.01
2022-12-03T01:26:46.721Z,87.35
2022-12-03T01:29:15.913Z,87.18
2022-12-03T01:32:01.006Z,86.94
2022-12-03T01:34:28.777Z,86.86
2022-12-03T01:36:56.607Z,86.97
2022-12-03T01:39:25.027Z,86.79
2022-12-03T01:41:54.397Z,86.61
2022-12-03T01:44:25.657Z,86.66
2022-12-03T01:46:56.914Z,86.46
2022-12-03T01:49:27.697Z,86.42
2022-12-03T01:51:56.428Z,86.64
2022-12-03T01:54:28.181Z,86.55
2022-12-03T01:56:56.557Z,86.25
2022-12-03T01:59:33.956Z,86.12
2022-12-03T02:02:12.264Z,86.05
2022-12-03T02:04:40.137Z,85.97
2022-12-03T02:07:25.657Z,86.35
2022-12-03T02:09:54.168Z,86.40
2022-12-03T02:12:26.282Z,85.87
2022-12-03T02:14:56.015Z,86.01
2022-12-03T02:17:23.890Z,86.38
2022-12-03T02:19:52.467Z,85.95
2022-12-03T02:22:32.206Z,85.90
2022-12-03T02:25:10.773Z,86.23
2022-12-03T02:27:38.521Z,86.58
2022-12-03T02:30:08.416Z,86.16
2022-12-03T02:32:36.120Z,86.69
2022-12-03T02:35:03.866Z,86.16
2022-12-03T02:37:34.289Z,85.88
2022-12-03T02:40:05.840Z,86.56
2022-12-03T02:42:36.664Z,85.89
2022-12-03T02:45:08.521Z,86.09
2022-12-03T02:47:41.157Z,86.42
2022-12-03T02:50:10.572Z,85.98
2022-12-03T02:52:38.761Z,86.56
2022-12-03T02:55:08.166Z,85.80
2022-12-03T02:57:38.593Z,85.92
2022-12-03T03:00:08.186Z,86.28
2022-12-03T03:02:37.156Z,85.90
2022-12-03T03:05:07.824Z,85.80
2022-12-03T03:07:36.916Z,86.20
2022-12-03T03:10:06.041Z,86.25
2022-12-03T03:12:38.993Z,86.23
2022-12-03T03:15:11.635Z,86.40
2022-12-03T03:17:39.760Z,86.29
2022-12-03T03:20:10.583Z,85.97
2022-12-03T03:22:40.463Z,86.23
2022-12-03T03:25:10.771Z,86.29
2022-12-03T03:27:39.534Z,86.46
2022-12-03T03:30:11.038Z,86.50
2022-12-03T03:32:40.108Z,86.10
2022-12-03T03:35:09.158Z,86.47
2022-12-03T03:37:36.883Z,86.00
2022-12-03T03:40:05.001Z,86.38
2022-12-03T03:42:32.685Z,86.42
2022-12-03T03:45:00.671Z,86.60
2022-12-03T03:47:29.712Z,86.93
2022-12-03T03:49:57.577Z,86.79
2022-12-03T03:52:25.881Z,85.85
2022-12-03T03:54:53.740Z,86.02
2022-12-03T03:57:21.795Z,86.41
2022-12-03T03:59:49.415Z,85.98
2022-12-03T04:02:20.552Z,86.53
2022-12-03T04:04:51.151Z,86.88
2022-12-03T04:07:18.992Z,86.42
2022-12-03T04:09:46.698Z,87.00
2022-12-03T04:12:31.793Z,86.02
2022-12-03T04:14:59.427Z,85.98
2022-12-03T04:17:27.052Z,86.55
2022-12-03T04:19:56.138Z,86.02
2022-12-03T04:22:41.317Z,85.58
2022-12-03T04:25:28.914Z,86.37
2022-12-03T04:28:14.086Z,85.84
2022-12-03T04:30:41.745Z,85.94
2022-12-03T04:33:26.997Z,86.14
2022-12-03T04:35:56.064Z,86.18
2022-12-03T04:38:23.893Z,86.09
2022-12-03T04:41:04.836Z,86.18
2022-12-03T04:43:34.383Z,85.51
2022-12-03T04:46:02.400Z,86.09
2022-12-03T04:48:30.133Z,86.07
2022-12-03T04:50:59.114Z,86.17
2022-12-03T04:53:26.761Z,86.45
2022-12-03T04:55:54.417Z,86.27
2022-12-03T04:58:22.038Z,86.55
2022-12-03T05:00:49.636Z,86.12
2022-12-03T05:03:17.301Z,86.07
2022-12-03T05:05:44.950Z,85.60
2022-12-03T05:08:13.980Z,86.02
2022-12-03T05:10:41.625Z,85.75
2022-12-03T05:13:09.246Z,85.61
2022-12-03T05:15:36.880Z,86.14
2022-12-03T05:18:04.567Z,86.50
2022-12-03T05:20:49.767Z,86.36
2022-12-03T05:23:22.322Z,85.72
2022-12-03T05:25:50.135Z,85.99
2022-12-03T05:28:17.949Z,86.26
2022-12-03T05:30:45.706Z,86.26
2022-12-03T05:33:13.367Z,86.51
2022-12-03T05:35:41.026Z,86.09
2022-12-03T05:38:08.666Z,85.78
2022-12-03T05:40:37.600Z,85.85
2022-12-03T05:43:04.741Z,85.97
2022-12-03T05:45:34.162Z,86.54
2022-12-03T05:48:02.843Z,86.63
2022-12-03T05:50:32.747Z,86.28
2022-12-03T05:53:00.964Z,85.71
2022-12-03T05:55:29.496Z,85.88
2022-12-03T05:57:58.877Z,86.04
2022-12-03T06:00:28.744Z,86.02
2022-12-03T06:02:57.334Z,86.14
2022-12-03T06:05:25.693Z,86.00
2022-12-03T06:07:54.079Z,86.24
2022-12-03T06:10:23.769Z,86.25
2022-12-03T06:12:51.848Z,86.46
2022-12-03T06:15:21.689Z,86.50
2022-12-03T06:17:49.332Z,86.29
2022-12-03T06:20:19.826Z,85.75
2022-12-03T06:22:47.860Z,86.32
2022-12-03T06:25:15.977Z,86.32
2022-12-03T06:27:43.797Z,86.88
2022-12-03T06:30:14.953Z,86.37
2022-12-03T06:32:44.006Z,85.87
2022-12-03T06:35:12.602Z,86.09
2022-12-03T06:37:40.241Z,85.73
2022-12-03T06:40:09.219Z,85.40
2022-12-03T06:42:36.849Z,85.98
2022-12-03T06:45:04.966Z,86.01
2022-12-03T06:47:32.600Z,86.13
2022-12-03T06:50:01.691Z,86.31
2022-12-03T06:52:29.291Z,86.24
2022-12-03T06:54:57.116Z,86.27
2022-12-03T06:57:25.027Z,86.43
2022-12-03T06:59:52.911Z,85.91
2022-12-03T07:02:20.768Z,86.23
2022-12-03T07:04:48.574Z,86.35
2022-12-03T07:07:17.608Z,86.38
2022-12-03T07:09:45.237Z,86.32
2022-12-03T07:12:13.763Z,85.83
2022-12-03T07:14:41.423Z,85.98
2022-12-03T07:17:09.308Z,86.39
2022-12-03T07:19:36.948Z,86.31
2022-12-03T07:22:04.693Z,85.95
2022-12-03T07:24:33.762Z,86.13
2022-12-03T07:27:01.474Z,85.85
2022-12-03T07:29:29.105Z,85.98
2022-12-03T07:31:56.901Z,85.99
2022-12-03T07:34:24.725Z,86.59
2022-12-03T07:36:52.526Z,86.90
2022-12-03T07:39:20.154Z,86.51
2022-12-03T07:41:49.192Z,86.23
2022-12-03T07:44:16.862Z,85.97
2022-12-03T07:46:44.772Z,85.75
2022-12-03T07:49:13.228Z,85.64
2022-12-03T07:51:41.136Z,86.17
2022-12-03T07:54:08.776Z,86.07
2022-12-03T07:56:36.520Z,85.93
2022-12-03T07:59:05.664Z,85.58
2022-12-03T08:01:33.311Z,85.53
2022-12-03T08:04:01.040Z,85.44
2022-12-03T08:06:28.712Z,85.20
2022-12-03T08:08:56.383Z,85.44
2022-12-03T08:11:24.039Z,84.89
2022-12-03T08:13:51.707Z,85.09
2022-12-03T08:16:22.900Z,84.93
2022-12-03T08:18:51.958Z,85.13
2022-12-03T08:21:21.814Z,85.07
2022-12-03T08:23:49.724Z,84.45
2022-12-03T08:26:22.588Z,85.18
2022-12-03T08:28:50.404Z,85.05
2022-12-03T08:31:26.825Z,85.18
2022-12-03T08:34:13.048Z,85.03
2022-12-03T08:36:40.639Z,84.52
2022-12-03T08:39:27.635Z,84.43
2022-12-03T08:42:15.324Z,85.02
2022-12-03T08:44:42.999Z,84.56
2022-12-03T08:47:17.694Z,84.63
2022-12-03T08:49:48.759Z,85.01
2022-12-03T08:52:19.566Z,85.27
2022-12-03T08:54:52.988Z,85.61
2022-12-03T08:57:27.657Z,85.42
2022-12-03T08:59:59.018Z,84.96
2022-12-03T09:02:33.493Z,85.69
2022-12-03T09:05:14.223Z,85.16
2022-12-03T09:07:41.911Z,85.32
2022-12-03T09:10:10.195Z,85.81
2022-12-03T09:12:38.024Z,85.76
2022-12-03T09:15:06.417Z,85.39
2022-12-03T09:17:35.504Z,84.86
2022-12-03T09:20:03.223Z,84.40
2022-12-03T09:22:30.901Z,84.83
2022-12-03T09:24:59.010Z,85.34
2022-12-03T09:27:27.294Z,84.96
2022-12-03T09:29:54.972Z,84.39
2022-12-03T09:32:22.702Z,84.38
2022-12-03T09:34:52.020Z,84.48
2022-12-03T09:37:20.438Z,83.79
2022-12-03T09:39:48.042Z,83.37
2022-12-03T09:42:16.435Z,83.83
2022-12-03T09:44:44.837Z,84.08
2022-12-03T09:47:12.795Z,84.09
2022-12-03T09:49:41.178Z,83.54
2022-12-03T09:52:17.511Z,83.70
2022-12-03T09:54:47.609Z,83.93
2022-12-03T09:57:16.509Z,83.61
2022-12-03T09:59:44.208Z,83.78
2022-12-03T10:02:20.824Z,83.32
2022-12-03T10:04:49.088Z,83.63
2022-12-03T10:07:18.686Z,83.51
2022-12-03T10:09:46.419Z,83.36
2022-12-03T10:12:16.252Z,82.80
2022-12-03T10:14:44.150Z,82.08
2022-12-03T10:17:12.846Z,82.42
2022-12-03T10:19:42.643Z,82.92
2022-12-03T10:22:10.358Z,82.80
2022-12-03T10:24:39.814Z,82.76
2022-12-03T10:27:22.927Z,82.84
2022-12-03T10:29:58.549Z,82.36
2022-12-03T10:32:28.033Z,82.56
2022-12-03T10:35:09.972Z,82.13
2022-12-03T10:37:37.777Z,83.12
2022-12-03T10:40:09.329Z,82.42
2022-12-03T10:42:38.726Z,81.79
2022-12-03T10:45:15.809Z,81.76
2022-12-03T10:47:44.208Z,81.56
2022-12-03T10:50:20.515Z,82.10
2022-12-03T10:52:51.750Z,82.00
2022-12-03T10:55:20.822Z,81.93
2022-12-03T10:57:48.728Z,82.00
2022-12-03T11:00:18.596Z,82.13
2022-12-03T11:02:50.548Z,81.69
2022-12-03T11:05:26.963Z,81.91
2022-12-03T11:07:54.993Z,82.81
2022-12-03T11:10:24.713Z,82.78
2022-12-03T11:13:29.745Z,82.07
2022-12-03T11:15:58.161Z,82.20
2022-12-03T11:19:01.118Z,82.33
2022-12-03T11:21:29.477Z,81.83
2022-12-03T11:24:19.676Z,81.57
2022-12-03T11:27:18.851Z,81.18
2022-12-03T11:30:00.558Z,81.67
2022-12-03T11:33:06.158Z,82.13
2022-12-03T11:36:07.997Z,81.57
2022-12-03T11:38:53.569Z,81.75
2022-12-03T11:41:25.055Z,81.38
2022-12-03T11:44:29.283Z,81.34
2022-12-03T11:46:59.076Z,81.50
2022-12-03T11:49:47.719Z,82.23
2022-12-03T11:52:25.560Z,82.04
2022-12-03T11:54:56.763Z,81.88
2022-12-03T11:57:32.684Z,82.25
2022-12-03T12:00:25.199Z,81.79
2022-12-03T12:02:54.191Z,81.73
2022-12-03T12:05:28.832Z,81.76
2022-12-03T12:07:57.243Z,80.64
2022-12-03T12:10:44.071Z,81.41
2022-12-03T12:13:51.964Z,81.17
2022-12-03T12:16:42.841Z,81.12
2022-12-03T12:19:39.979Z,81.09
2022-12-03T12:22:20.005Z,80.55
2022-12-03T12:24:51.459Z,81.62
2022-12-03T12:27:21.431Z,81.39
2022-12-03T12:29:54.616Z,80.56
2022-12-03T12:32:26.423Z,80.58
2022-12-03T12:34:58.208Z,81.09
2022-12-03T12:37:34.194Z,81.57
2022-12-03T12:40:03.917Z,81.54
2022-12-03T12:42:34.372Z,81.61
2022-12-03T12:45:13.069Z,81.41
2022-12-03T12:47:48.260Z,81.78
2022-12-03T12:50:17.945Z,81.57
2022-12-03T12:52:51.741Z,81.16
2022-12-03T12:55:20.443Z,80.86
2022-12-03T12:57:48.193Z,80.48
2022-12-03T13:00:19.686Z,80.20
2022-12-03T13:02:53.149Z,80.79
2022-12-03T13:05:20.972Z,80.83
2022-12-03T13:07:49.265Z,81.56
2022-12-03T13:10:34.799Z,80.80
2022-12-03T13:13:16.671Z,80.94
2022-12-03T13:15:50.833Z,80.48
2022-12-03T13:18:27.826Z,80.77
2022-12-03T13:20:56.213Z,81.26
2022-12-03T13:23:31.315Z,80.57
2022-12-03T13:26:12.881Z,80.63
2022-12-03T13:28:50.046Z,80.81
2022-12-03T13:31:24.671Z,81.09
2022-12-03T13:33:55.035Z,81.38
2022-12-03T13:36:26.656Z,80.88
2022-12-03T13:38:54.454Z,80.66
2022-12-03T13:41:40.277Z,80.66
2022-12-03T13:44:16.452Z,80.69
2022-12-03T13:46:44.640Z,80.84
2022-12-03T13:49:17.592Z,81.35
2022-12-03T13:51:45.380Z,80.80
2022-12-03T13:54:18.458Z,80.90
2022-12-03T13:56:46.122Z,80.92
2022-12-03T13:59:14.140Z,80.43
2022-12-03T14:01:41.891Z,80.45
2022-12-03T14:04:09.809Z,80.66
2022-12-03T14:06:39.434Z,80.56
2022-12-03T14:09:07.158Z,80.97
2022-12-03T14:11:52.454Z,80.26
2022-12-03T14:14:20.244Z,80.04
2022-12-03T14:16:48.164Z,79.43
2022-12-03T14:19:15.895Z,79.98
2022-12-03T14:21:45.037Z,80.02
2022-12-03T14:24:12.728Z,79.97
2022-12-03T14:26:40.353Z,80.63
2022-12-03T14:29:09.021Z,81.17
2022-12-03T14:31:37.131Z,80.81
2022-12-03T14:34:04.867Z,80.14
2022-12-03T14:36:32.570Z,80.40
2022-12-03T14:39:01.917Z,80.87
2022-12-03T14:41:47.164Z,80.06
2022-12-03T14:44:15.294Z,80.60
2022-12-03T14:46:42.984Z,80.40
2022-12-03T14:49:10.615Z,80.63
2022-12-03T14:51:38.569Z,81.14
2022-12-03T14:54:07.807Z,81.02
2022-12-03T14:56:35.622Z,80.73
2022-12-03T14:59:03.310Z,80.60
2022-12-03T15:01:31.249Z,79.82
2022-12-03T15:03:59.232Z,80.35
2022-12-03T15:06:26.907Z,80.84
2022-12-03T15:08:54.559Z,80.81
2022-12-03T15:11:23.517Z,81.08
2022-12-03T15:13:51.206Z,80.97
2022-12-03T15:16:18.934Z,81.16
2022-12-03T15:18:46.695Z,81.15
2022-12-03T15:21:14.315Z,81.21
2022-12-03T15:23:42.305Z,81.53
2022-12-03T15:26:10.022Z,81.38
2022-12-03T15:28:39.091Z,80.99
2022-12-03T15:31:07.029Z,81.44
2022-12-03T15:33:34.691Z,81.69
2022-12-03T15:36:02.484Z,81.59
2022-12-03T15:38:30.116Z,81.53
2022-12-03T15:40:58.088Z,81.52
2022-12-03T15:43:25.779Z,81.74
2022-12-03T15:45:54.838Z,81.48
2022-12-03T15:48:22.473Z,81.47
2022-12-03T15:50:50.115Z,81.40
2022-12-03T15:53:17.764Z,81.81
2022-12-03T15:55:45.403Z,81.98
2022-12-03T15:58:13.023Z,82.22
2022-12-03T16:00:40.688Z,81.29
2022-12-03T16:03:09.780Z,81.49
2022-12-03T16:05:37.451Z,81.86
2022-12-03T16:08:05.478Z,81.96
2022-12-03T16:10:33.202Z,81.93
2022-12-03T16:13:00.838Z,82.49
2022-12-03T16:15:28.523Z,81.68
2022-12-03T16:17:56.142Z,82.00
2022-12-03T16:20:25.169Z,82.20
2022-12-03T16:22:53.100Z,82.15
2022-12-03T16:25:20.780Z,82.25
2022-12-03T16:27:48.793Z,81.50
2022-12-03T16:30:16.740Z,81.88
2022-12-03T16:32:44.395Z,82.27
2022-12-03T16:35:11.991Z,82.04
2022-12-03T16:37:40.992Z,82.05
2022-12-03T16:40:09.833Z,81.59
2022-12-03T16:42:37.614Z,81.71
2022-12-03T16:45:22.837Z,81.48
2022-12-03T16:47:50.583Z,81.53
2022-12-03T16:50:25.902Z,81.76
2022-12-03T16:52:58.157Z,81.64
2022-12-03T16:55:26.395Z,81.78
2022-12-03T16:57:54.066Z,81.75
2022-12-03T17:00:22.744Z,82.01
2022-12-03T17:02:50.482Z,81.67
2022-12-03T17:05:18.331Z,82.08
2022-12-03T17:07:46.061Z,82.00
2022-12-03T17:10:15.234Z,81.71
2022-12-03T17:13:08.110Z,82.02
2022-12-03T17:15:30.607Z,81.51
2022-12-03T17:17:58.393Z,81.76
2022-12-03T17:20:26.083Z,81.42
2022-12-03T17:22:53.937Z,81.86
2022-12-03T17:25:22.946Z,81.60
2022-12-03T17:27:50.662Z,81.26
2022-12-03T17:30:18.889Z,81.71
2022-12-03T17:32:46.643Z,81.87
2022-12-03T17:35:14.659Z,81.57
2022-12-03T17:37:42.275Z,81.71
2022-12-03T17:40:11.977Z,82.15
2022-12-03T17:42:40.994Z,82.27
2022-12-03T17:45:09.729Z,82.62
2022-12-03T17:47:37.349Z,82.17
2022-12-03T17:50:05.689Z,82.32
2022-12-03T17:52:33.395Z,82.58
2022-12-03T17:55:26.790Z,82.95
2022-12-03T17:57:50.093Z,82.39
2022-12-03T18:00:18.167Z,82.41
2022-12-03T18:02:45.779Z,82.88
2022-12-03T18:05:14.122Z,83.09
2022-12-03T18:07:42.027Z,82.67
2022-12-03T18:10:10.230Z,82.90
2022-12-03T18:12:37.905Z,82.60
2022-12-03T18:15:08.217Z,82.58
2022-12-03T18:17:36.065Z,82.92
2022-12-03T18:20:04.521Z,82.85
2022-12-03T18:22:32.464Z,82.83
2022-12-03T18:25:00.371Z,82.92
2022-12-03T18:27:28.069Z,82.75
2022-12-03T18:29:56.003Z,82.98
2022-12-03T18:32:29.498Z,83.00
2022-12-03T18:34:58.273Z,83.02
2022-12-03T18:37:28.217Z,82.92
2022-12-03T18:39:57.921Z,82.96
2022-12-03T18:42:26.564Z,83.24
2022-12-03T18:44:56.536Z,83.38
2022-12-03T18:47:29.261Z,83.24
2022-12-03T18:49:57.786Z,82.83
2022-12-03T18:52:25.885Z,83.12
2022-12-03T18:54:54.395Z,82.27
2022-12-03T18:57:22.061Z,82.79
2022-12-03T18:59:49.771Z,83.17
2022-12-03T19:05:11.093Z,82.92
2022-12-03T19:07:38.885Z,83.34
2022-12-03T19:10:07.871Z,83.07
2022-12-03T19:12:35.680Z,83.17
2022-12-03T19:15:04.078Z,82.88
2022-12-03T19:17:32.401Z,83.22
2022-12-03T19:20:00.022Z,83.70
2022-12-03T19:22:29.044Z,84.09
2022-12-03T19:24:56.743Z,83.53
2022-12-03T19:27:24.378Z,83.41
2022-12-03T19:29:52.293Z,83.20
2022-12-03T19:32:20.288Z,83.69
2022-12-03T19:34:47.959Z,82.80
2022-12-03T19:37:15.732Z,83.13
2022-12-03T19:39:44.774Z,83.62
2022-12-03T19:42:12.452Z,83.92
2022-12-03T19:44:40.262Z,83.80
2022-12-03T19:47:07.962Z,83.68
2022-12-03T19:49:35.603Z,84.04
2022-12-03T19:52:03.278Z,83.94
2022-12-03T19:54:30.943Z,83.72
2022-12-03T19:56:59.998Z,83.46
2022-12-03T19:59:27.627Z,84.01
2022-12-03T20:01:55.451Z,84.24
2022-12-03T20:04:23.133Z,84.16
2022-12-03T20:06:50.843Z,84.23
2022-12-03T20:09:18.623Z,84.27
2022-12-03T20:11:46.855Z,84.69
2022-12-03T20:14:17.698Z,84.45
2022-12-03T20:16:46.105Z,84.57
2022-12-03T20:19:16.373Z,84.68
2022-12-03T20:21:45.093Z,84.83
2022-12-03T20:24:16.037Z,85.19
2022-12-03T20:26:43.809Z,84.90
2022-12-03T20:29:11.623Z,84.91
2022-12-03T20:31:40.848Z,85.13
2022-12-03T20:34:08.600Z,85.10
2022-12-03T20:36:37.025Z,85.03
2022-12-03T20:39:07.316Z,85.29
2022-12-03T20:41:36.140Z,84.65
2022-12-03T20:44:05.875Z,84.96
2022-12-03T20:46:33.839Z,85.13
2022-12-03T20:49:02.978Z,85.20
2022-12-03T20:51:32.809Z,85.23
2022-12-03T20:54:01.727Z,85.48
2022-12-03T20:56:31.399Z,85.23
2022-12-03T20:59:01.009Z,85.27
2022-12-03T21:01:30.043Z,84.79
2022-12-03T21:03:58.778Z,84.74
2022-12-03T21:06:29.893Z,85.10
2022-12-03T21:08:58.898Z,85.10
2022-12-03T21:11:30.666Z,84.83
2022-12-03T21:13:59.120Z,85.33
2022-12-03T21:16:59.234Z,85.11
2022-12-03T21:19:20.203Z,84.96
2022-12-03T21:21:49.362Z,85.39
2022-12-03T21:24:17.128Z,84.84
2022-12-03T21:26:44.805Z,84.91
2022-12-03T21:29:12.502Z,85.13
2022-12-03T21:31:40.277Z,85.13
2022-12-03T21:34:08.705Z,85.37
2022-12-03T21:36:36.573Z,84.99
2022-12-03T21:39:06.190Z,84.98
2022-12-03T21:41:35.066Z,85.10
2022-12-03T21:44:03.101Z,85.24
2022-12-03T21:47:12.343Z,85.11
2022-12-03T21:49:20.219Z,84.88
2022-12-03T21:51:47.954Z,84.54
2022-12-03T21:54:16.972Z,84.83
2022-12-03T21:56:44.650Z,85.06
2022-12-03T21:59:12.343Z,84.70
2022-12-03T22:01:44.136Z,84.57
2022-12-03T22:04:14.599Z,84.75
2022-12-03T22:06:42.241Z,84.98
2022-12-03T22:09:09.958Z,85.00
2022-12-03T22:11:39.015Z,84.92
2022-12-03T22:14:08.248Z,84.91
2022-12-03T22:16:35.983Z,84.93
2022-12-03T22:19:03.765Z,84.71
2022-12-03T22:21:31.475Z,84.93
2022-12-03T22:23:59.203Z,84.55
2022-12-03T22:26:26.949Z,84.22
2022-12-03T22:28:56.017Z,84.14
2022-12-03T22:31:23.686Z,84.75
2022-12-03T22:33:51.470Z,84.75
2022-12-03T22:36:21.731Z,84.89
2022-12-03T22:38:51.452Z,84.79
2022-12-03T22:41:20.425Z,85.09
2022-12-03T22:43:48.809Z,84.81
2022-12-03T22:46:18.608Z,84.31
2022-12-03T22:48:47.613Z,84.27
2022-12-03T22:51:17.216Z,84.55
2022-12-03T22:53:44.896Z,84.80
2022-12-03T22:56:12.889Z,84.68
2022-12-03T22:58:41.659Z,84.98
2022-12-03T23:01:09.461Z,84.83
2022-12-03T23:03:38.644Z,84.51
2022-12-03T23:06:11.085Z,84.70
2022-12-03T23:08:39.104Z,84.84
2022-12-03T23:11:07.221Z,84.86
2022-12-03T23:13:35.216Z,84.65
2022-12-03T23:16:03.510Z,84.49
2022-12-03T23:18:31.351Z,84.90
2022-12-03T23:21:00.442Z,84.71
2022-12-03T23:23:29.362Z,84.86
2022-12-03T23:25:58.351Z,84.66
2022-12-03T23:28:26.312Z,84.74
2022-12-03T23:30:54.174Z,84.61
2022-12-03T23:33:24.009Z,84.87
2022-12-03T23:35:51.839Z,85.48
2022-12-03T23:38:21.160Z,85.08
2022-12-03T23:40:48.820Z,84.88
2022-12-03T23:43:16.817Z,84.71
2022-12-03T23:45:44.503Z,84.71
2022-12-03T23:48:12.862Z,84.96
2022-12-03T23:50:41.179Z,85.40
2022-12-03T23:53:09.475Z,85.20
2022-12-03T23:55:41.400Z,85.03
2022-12-03T23:58:09.021Z,84.96
